Time;durP1;ratioP1;P1;durP2;ratioP2;P2;SDS_P1;SDS_P2;PMS_P1;PMS_P2;Temp;Humidity;BMP_temperature;BMP_pressure;BME280_temperature;BME280_humidity;BME280_pressure;Samples;Min_cycle;Max_cycle;Signal;HPM_P1;HPM_P2
2023/01/06 00:00:35;;;;;;;6.30;2.00;;;;;;;;;;5076573;28;20293;-81
2023/01/06 00:03:00;;;;;;;7.05;1.83;;;;;;;;;;5059330;28;20095;-81
2023/01/06 00:05:25;;;;;;;4.10;1.52;;;;;;;;;;5077479;28;20036;-82
2023/01/06 00:07:51;;;;;;;4.03;1.60;;;;;;;;;;5059058;28;20093;-82
2023/01/06 00:10:17;;;;;;;2.25;1.65;;;;;;;;;;5077716;28;20414;-81
2023/01/06 00:12:44;;;;;;;3.92;1.60;;;;;;;;;;5077652;28;20106;-82
2023/01/06 00:15:10;;;;;;;5.32;1.75;;;;;;;;;;5078741;28;20035;-81
2023/01/06 00:17:35;;;;;;;5.78;1.65;;;;;;;;;;5060509;28;20024;-81
2023/01/06 00:20:00;;;;;;;3.60;1.60;;;;;;;;;;5078997;28;20052;-81
2023/01/06 00:22:26;;;;;;;2.53;1.52;;;;;;;;;;5079573;28;20264;-81
2023/01/06 00:24:51;;;;;;;4.55;1.88;;;;;;;;;;5079122;28;20021;-82
2023/01/06 00:27:16;;;;;;;4.07;1.77;;;;;;;;;;5079313;28;20426;-82
2023/01/06 00:29:41;;;;;;;2.97;1.80;;;;;;;;;;5078204;28;20750;-83
2023/01/06 00:32:06;;;;;;;3.38;1.60;;;;;;;;;;5078364;28;20273;-81
2023/01/06 00:34:32;;;;;;;4.43;1.50;;;;;;;;;;5078582;28;20030;-82
2023/01/06 00:36:57;;;;;;;2.92;1.40;;;;;;;;;;5078375;28;20052;-81
2023/01/06 00:39:22;;;;;;;5.72;2.00;;;;;;;;;;5078498;28;20025;-82
2023/01/06 00:42:03;;;;;;;5.45;2.00;;;;;;;;;;5060140;28;20074;-81
2023/01/06 00:44:29;;;;;;;2.95;1.80;;;;;;;;;;5059328;28;20027;-81
2023/01/06 00:46:54;;;;;;;5.18;1.90;;;;;;;;;;5077082;28;20036;-80
2023/01/06 00:49:20;;;;;;;3.83;1.60;;;;;;;;;;5077937;28;20051;-80
2023/01/06 00:51:45;;;;;;;3.50;1.73;;;;;;;;;;5078225;28;20086;-82
2023/01/06 00:54:12;;;;;;;3.38;1.88;;;;;;;;;;5077918;28;20265;-82
2023/01/06 00:56:39;;;;;;;3.25;1.88;;;;;;;;;;5078283;28;20096;-81
2023/01/06 00:59:05;;;;;;;2.90;1.75;;;;;;;;;;5077757;28;20024;-81
2023/01/06 01:01:32;;;;;;;4.40;1.85;;;;;;;;;;5076793;28;20492;-81
2023/01/06 01:03:57;;;;;;;6.60;1.77;;;;;;;;;;5077257;28;20036;-81
2023/01/06 01:06:22;;;;;;;2.75;1.55;;;;;;;;;;5076911;28;20039;-83
2023/01/06 01:08:52;;;;;;;4.32;1.48;;;;;;;;;;5076996;28;20099;-83
2023/01/06 01:14:02;;;;;;;4.32;1.88;;;;;;;;;;5077424;28;20071;-82
2023/01/06 01:16:27;;;;;;;2.10;1.50;;;;;;;;;;5078056;28;20020;-81
2023/01/06 01:18:52;;;;;;;6.00;1.60;;;;;;;;;;5059625;28;20025;-81
2023/01/06 01:21:17;;;;;;;3.60;1.27;;;;;;;;;;5059334;28;20393;-82
2023/01/06 01:23:42;;;;;;;3.08;1.50;;;;;;;;;;5078129;28;20024;-82
2023/01/06 01:26:08;;;;;;;4.60;1.20;;;;;;;;;;5059846;28;20031;-82
2023/01/06 01:28:33;;;;;;;2.43;1.47;;;;;;;;;;5077792;28;20253;-81
2023/01/06 01:30:59;;;;;;;4.13;1.60;;;;;;;;;;5078362;28;20348;-82
2023/01/06 01:33:28;;;;;;;2.47;1.13;;;;;;;;;;5077588;28;20028;-82
2023/01/06 01:35:53;;;;;;;5.28;1.30;;;;;;;;;;5059719;28;20044;-83
2023/01/06 01:38:18;;;;;;;3.13;1.43;;;;;;;;;;5077689;28;20036;-80
2023/01/06 01:40:50;;;;;;;3.87;1.33;;;;;;;;;;5077575;28;20257;-80
2023/01/06 01:43:15;;;;;;;2.95;1.27;;;;;;;;;;5077975;28;20360;-81
2023/01/06 01:45:44;;;;;;;3.40;1.40;;;;;;;;;;5077245;28;20021;-82
2023/01/06 01:48:28;;;;;;;3.05;1.52;;;;;;;;;;5076887;28;20025;-83
2023/01/06 01:50:57;;;;;;;3.15;1.40;;;;;;;;;;5059296;28;20498;-80
2023/01/06 01:53:26;;;;;;;4.45;1.50;;;;;;;;;;5077646;28;20056;-81
2023/01/06 01:55:54;;;;;;;3.63;1.70;;;;;;;;;;5077959;28;20054;-82
2023/01/06 01:58:23;;;;;;;4.18;1.42;;;;;;;;;;5059045;28;20142;-83
2023/01/06 02:00:50;;;;;;;4.53;1.50;;;;;;;;;;5058672;28;20131;-81
2023/01/06 02:03:17;;;;;;;2.38;1.48;;;;;;;;;;5076919;28;20024;-82
2023/01/06 02:05:47;;;;;;;2.30;1.35;;;;;;;;;;5076307;28;20103;-80
2023/01/06 02:08:23;;;;;;;5.60;1.75;;;;;;;;;;5057926;28;20029;-81
2023/01/06 02:10:48;;;;;;;4.93;1.67;;;;;;;;;;5076536;28;20028;-79
2023/01/06 02:13:13;;;;;;;3.15;1.40;;;;;;;;;;5076755;28;20074;-82
2023/01/06 02:15:41;;;;;;;4.10;1.30;;;;;;;;;;5076936;28;20073;-82
2023/01/06 02:18:45;;;;;;;2.97;1.50;;;;;;;;;;5077302;28;20032;-81
2023/01/06 02:21:27;;;;;;;3.13;1.60;;;;;;;;;;5059261;28;20059;-81
2023/01/06 02:24:07;;;;;;;9.48;1.85;;;;;;;;;;5079400;28;20497;-81
2023/01/06 02:26:58;;;;;;;2.95;1.40;;;;;;;;;;5083014;28;20029;-82
2023/01/06 02:29:43;;;;;;;4.95;1.73;;;;;;;;;;5082702;28;20028;-82
2023/01/06 02:32:33;;;;;;;3.92;1.52;;;;;;;;;;5081882;28;20024;-82
2023/01/06 02:35:36;;;;;;;5.63;1.58;;;;;;;;;;5081756;28;20029;-81
2023/01/06 02:38:38;;;;;;;6.05;1.70;;;;;;;;;;5082049;28;20489;-80
2023/01/06 02:41:32;;;;;;;4.32;1.63;;;;;;;;;;5081239;28;20055;-81
2023/01/06 02:44:15;;;;;;;4.15;1.70;;;;;;;;;;5067386;28;20028;-81
2023/01/06 02:47:14;;;;;;;5.78;1.90;;;;;;;;;;5080786;28;20036;-81
2023/01/06 02:50:04;;;;;;;6.25;1.85;;;;;;;;;;5061717;28;20020;-80
2023/01/06 02:52:49;;;;;;;4.65;1.92;;;;;;;;;;5080408;28;20028;-83
2023/01/06 02:55:23;;;;;;;7.55;1.90;;;;;;;;;;5080021;28;20023;-81
2023/01/06 02:57:54;;;;;;;4.15;1.80;;;;;;;;;;5078910;28;20036;-81
2023/01/06 03:00:26;;;;;;;2.63;1.70;;;;;;;;;;5079105;28;20024;-82
2023/01/06 03:02:57;;;;;;;9.60;2.00;;;;;;;;;;5079290;28;20020;-82
2023/01/06 03:05:24;;;;;;;5.78;2.00;;;;;;;;;;5078912;28;20042;-81
2023/01/06 03:07:51;;;;;;;6.68;1.90;;;;;;;;;;5079270;28;20056;-81
2023/01/06 03:10:20;;;;;;;5.13;1.63;;;;;;;;;;5061271;28;20118;-81
2023/01/06 03:12:59;;;;;;;4.47;1.70;;;;;;;;;;5079361;28;20039;-82
2023/01/06 03:15:25;;;;;;;2.53;1.65;;;;;;;;;;5079509;28;20028;-82
2023/01/06 03:17:51;;;;;;;2.47;1.65;;;;;;;;;;5078882;28;20078;-81
2023/01/06 03:20:17;;;;;;;4.72;1.60;;;;;;;;;;5060432;28;20028;-80
2023/01/06 03:22:42;;;;;;;2.53;1.52;;;;;;;;;;5059890;28;20051;-81
2023/01/06 03:25:09;;;;;;;2.42;1.70;;;;;;;;;;5059888;28;20024;-82
2023/01/06 03:27:34;;;;;;;4.38;1.60;;;;;;;;;;5078007;28;20103;-81
2023/01/06 03:30:02;;;;;;;5.22;1.70;;;;;;;;;;5060542;28;20113;-80
2023/01/06 03:32:38;;;;;;;3.80;1.52;;;;;;;;;;5078687;28;20052;-81
2023/01/06 03:35:40;;;;;;;6.65;1.88;;;;;;;;;;5077140;28;20028;-80
2023/01/06 03:38:36;;;;;;;8.68;1.75;;;;;;;;;;5077853;28;20024;-82
2023/01/06 03:43:10;;;;;;;5.85;1.75;;;;;;;;;;5079669;28;20062;-82
2023/01/06 03:44:22;;;;;;;4.53;1.52;;;;;;;;;;5079522;28;20462;-82
2023/01/06 03:46:53;;;;;;;6.65;1.50;;;;;;;;;;5079991;28;20024;-81
2023/01/06 03:49:29;;;;;;;4.60;1.65;;;;;;;;;;5078997;28;20048;-81
2023/01/06 03:52:06;;;;;;;3.30;1.40;;;;;;;;;;5078303;28;20021;-81
2023/01/06 03:54:47;;;;;;;2.85;1.25;;;;;;;;;;5078541;28;20063;-82
2023/01/06 03:57:37;;;;;;;3.08;1.20;;;;;;;;;;5078668;28;20027;-81
2023/01/06 04:00:17;;;;;;;2.63;1.30;;;;;;;;;;5070860;28;20042;-82
2023/01/06 04:02:45;;;;;;;6.03;1.27;;;;;;;;;;5078161;28;20056;-81
2023/01/06 04:05:16;;;;;;;3.33;1.08;;;;;;;;;;5077529;28;20119;-80
2023/01/06 04:07:42;;;;;;;6.55;1.30;;;;;;;;;;5078942;28;20066;-83
2023/01/06 04:10:09;;;;;;;4.05;1.15;;;;;;;;;;5060140;28;20035;-82
2023/01/06 04:12:37;;;;;;;2.10;1.08;;;;;;;;;;5078411;28;20063;-82
2023/01/06 04:15:06;;;;;;;4.13;1.33;;;;;;;;;;5060652;28;20025;-82
2023/01/06 04:17:32;;;;;;;3.33;1.15;;;;;;;;;;5078110;28;20474;-81
2023/01/06 04:19:57;;;;;;;5.18;1.33;;;;;;;;;;5077992;28;20039;-83
2023/01/06 04:22:22;;;;;;;4.50;1.20;;;;;;;;;;5077867;28;20016;-81
2023/01/06 04:24:47;;;;;;;2.93;1.23;;;;;;;;;;5077458;28;20264;-80
2023/01/06 04:27:13;;;;;;;1.75;1.13;;;;;;;;;;5059845;28;20261;-82
2023/01/06 04:29:38;;;;;;;3.20;1.60;;;;;;;;;;5059495;28;20397;-80
2023/01/06 04:32:03;;;;;;;5.40;1.77;;;;;;;;;;5059507;28;20669;-81
2023/01/06 04:34:29;;;;;;;6.50;2.72;;;;;;;;;;5077790;28;20622;-81
2023/01/06 04:36:54;;;;;;;8.00;3.40;;;;;;;;;;5077990;28;20056;-81
2023/01/06 04:39:19;;;;;;;9.63;3.35;;;;;;;;;;5078029;28;20070;-81
2023/01/06 04:41:45;;;;;;;9.68;3.50;;;;;;;;;;5059781;28;20016;-81
2023/01/06 04:44:10;;;;;;;6.60;2.33;;;;;;;;;;5060267;28;20398;-81
2023/01/06 04:46:35;;;;;;;3.85;2.58;;;;;;;;;;5076698;28;20622;-81
2023/01/06 04:49:00;;;;;;;4.73;2.13;;;;;;;;;;5077848;28;20020;-82
2023/01/06 04:51:25;;;;;;;4.53;1.67;;;;;;;;;;5078027;28;20395;-81
2023/01/06 04:53:51;;;;;;;4.72;1.80;;;;;;;;;;5077699;28;20032;-81
2023/01/06 04:56:16;;;;;;;2.65;1.40;;;;;;;;;;5077421;28;20492;-81
2023/01/06 04:58:41;;;;;;;5.00;1.50;;;;;;;;;;5077484;28;20459;-82
2023/01/06 05:01:10;;;;;;;4.13;1.30;;;;;;;;;;5058844;28;20024;-81
2023/01/06 05:03:36;;;;;;;3.83;1.58;;;;;;;;;;5077551;28;20017;-80
2023/01/06 05:06:03;;;;;;;3.17;1.15;;;;;;;;;;5076898;28;20528;-80
2023/01/06 05:08:30;;;;;;;3.63;1.45;;;;;;;;;;5077537;28;20020;-81
2023/01/06 05:11:06;;;;;;;3.30;1.40;;;;;;;;;;5078041;28;20020;-81
2023/01/06 05:13:31;;;;;;;3.25;1.67;;;;;;;;;;5077331;28;20503;-81
2023/01/06 05:15:57;;;;;;;3.45;1.27;;;;;;;;;;5059708;28;20025;-82
2023/01/06 05:18:22;;;;;;;3.40;1.27;;;;;;;;;;5077932;28;20024;-82
2023/01/06 05:20:52;;;;;;;5.78;1.63;;;;;;;;;;5076994;28;20331;-81
2023/01/06 05:23:17;;;;;;;7.43;1.50;;;;;;;;;;5077510;28;20027;-80
2023/01/06 05:25:42;;;;;;;5.47;1.70;;;;;;;;;;5077579;28;20059;-81
2023/01/06 05:28:08;;;;;;;7.50;2.00;;;;;;;;;;5059559;28;20044;-83
2023/01/06 05:30:33;;;;;;;7.85;1.60;;;;;;;;;;5077961;28;20050;-82
2023/01/06 05:32:58;;;;;;;3.47;1.25;;;;;;;;;;5076810;28;20115;-81
2023/01/06 05:35:23;;;;;;;5.88;1.65;;;;;;;;;;5077542;28;20029;-82
2023/01/06 05:37:49;;;;;;;7.47;1.67;;;;;;;;;;5078095;28;20089;-82
2023/01/06 05:40:14;;;;;;;4.53;1.40;;;;;;;;;;5078247;28;20285;-82
2023/01/06 05:42:39;;;;;;;4.50;1.58;;;;;;;;;;5059012;28;20265;-81
2023/01/06 05:45:05;;;;;;;3.30;1.60;;;;;;;;;;5077233;28;20025;-81
2023/01/06 05:47:30;;;;;;;7.32;1.98;;;;;;;;;;5078676;28;20272;-82
2023/01/06 05:49:55;;;;;;;5.10;1.60;;;;;;;;;;5077813;28;20052;-81
2023/01/06 05:52:20;;;;;;;3.10;1.40;;;;;;;;;;5077432;28;20273;-80
2023/01/06 05:54:46;;;;;;;6.83;2.07;;;;;;;;;;5076954;28;20260;-82
2023/01/06 05:57:11;;;;;;;5.70;2.08;;;;;;;;;;5058721;28;20262;-82
2023/01/06 05:59:36;;;;;;;9.95;2.40;;;;;;;;;;5079396;28;20047;-80
2023/01/06 06:02:01;;;;;;;6.47;2.07;;;;;;;;;;5080022;28;20035;-82
2023/01/06 06:04:27;;;;;;;8.73;2.50;;;;;;;;;;5061513;28;20253;-82
2023/01/06 06:06:52;;;;;;;9.60;2.63;;;;;;;;;;5079666;28;20254;-80
2023/01/06 06:09:17;;;;;;;7.45;2.85;;;;;;;;;;5079043;28;20481;-81
2023/01/06 06:11:42;;;;;;;6.47;2.40;;;;;;;;;;5079079;28;20509;-81
2023/01/06 06:14:09;;;;;;;7.83;2.60;;;;;;;;;;5078509;28;20752;-80
2023/01/06 06:16:34;;;;;;;5.22;2.28;;;;;;;;;;5078044;28;20256;-81
2023/01/06 06:18:59;;;;;;;9.37;2.53;;;;;;;;;;5078631;28;20108;-82
2023/01/06 06:21:27;;;;;;;12.77;2.90;;;;;;;;;;5077978;28;20293;-82
2023/01/06 06:23:53;;;;;;;6.80;2.35;;;;;;;;;;5059990;28;20258;-81
2023/01/06 06:26:19;;;;;;;6.60;2.75;;;;;;;;;;5078802;28;20421;-81
2023/01/06 06:28:44;;;;;;;8.40;2.88;;;;;;;;;;5078496;28;20077;-81
2023/01/06 06:31:13;;;;;;;7.07;2.55;;;;;;;;;;5078539;28;20029;-82
2023/01/06 06:33:39;;;;;;;13.88;3.10;;;;;;;;;;5078524;28;20024;-83
2023/01/06 06:36:05;;;;;;;12.98;2.95;;;;;;;;;;5078989;28;20103;-82
2023/01/06 06:38:31;;;;;;;5.03;2.45;;;;;;;;;;5078742;28;20050;-83
2023/01/06 06:40:56;;;;;;;8.73;2.53;;;;;;;;;;5079570;28;20025;-81
2023/01/06 06:43:22;;;;;;;6.15;2.88;;;;;;;;;;5078922;28;20052;-80
2023/01/06 06:45:47;;;;;;;8.10;2.50;;;;;;;;;;5060956;28;20020;-82
2023/01/06 06:48:13;;;;;;;8.32;2.63;;;;;;;;;;5079403;28;20032;-80
2023/01/06 06:50:38;;;;;;;6.63;2.40;;;;;;;;;;5079824;28;20024;-82
2023/01/06 06:53:03;;;;;;;5.05;2.17;;;;;;;;;;5078931;28;20032;-81
2023/01/06 06:55:29;;;;;;;7.97;2.78;;;;;;;;;;5078940;28;20064;-81
2023/01/06 06:57:54;;;;;;;8.32;2.67;;;;;;;;;;5078900;28;20397;-82
2023/01/06 07:00:19;;;;;;;8.45;2.90;;;;;;;;;;5078575;28;20024;-82
2023/01/06 07:02:48;;;;;;;6.68;2.80;;;;;;;;;;5078622;28;20385;-81
2023/01/06 07:05:14;;;;;;;8.50;2.60;;;;;;;;;;5060652;28;20035;-81
2023/01/06 07:07:40;;;;;;;9.75;2.97;;;;;;;;;;5078405;28;20040;-80
2023/01/06 07:10:05;;;;;;;5.32;2.60;;;;;;;;;;5077549;28;20028;-81
2023/01/06 07:12:31;;;;;;;8.00;2.95;;;;;;;;;;5078868;28;20025;-80
2023/01/06 07:14:56;;;;;;;10.95;3.53;;;;;;;;;;5060926;28;20427;-81
2023/01/06 07:17:26;;;;;;;7.25;3.17;;;;;;;;;;5060751;28;20029;-81
2023/01/06 07:19:52;;;;;;;11.70;3.83;;;;;;;;;;5078932;28;20493;-81
2023/01/06 07:22:17;;;;;;;12.40;3.50;;;;;;;;;;5078967;28;20021;-82
2023/01/06 07:24:42;;;;;;;9.38;3.40;;;;;;;;;;5079597;28;20253;-83
2023/01/06 07:27:07;;;;;;;9.20;3.23;;;;;;;;;;5060837;28;20592;-81
2023/01/06 07:29:32;;;;;;;5.97;3.00;;;;;;;;;;5060145;28;20262;-82
2023/01/06 07:31:58;;;;;;;10.57;3.70;;;;;;;;;;5078837;28;20029;-81
2023/01/06 07:34:23;;;;;;;7.85;3.30;;;;;;;;;;5060738;28;20302;-81
2023/01/06 07:36:49;;;;;;;12.00;3.65;;;;;;;;;;5079497;28;20465;-80
2023/01/06 07:39:14;;;;;;;7.73;3.10;;;;;;;;;;5079188;28;20024;-81
2023/01/06 07:41:39;;;;;;;10.97;3.60;;;;;;;;;;5078086;28;20249;-80
2023/01/06 07:44:04;;;;;;;9.13;3.70;;;;;;;;;;5078433;28;20264;-81
2023/01/06 07:46:29;;;;;;;9.70;3.60;;;;;;;;;;5077937;28;20249;-80
2023/01/06 07:48:55;;;;;;;9.23;3.45;;;;;;;;;;5060046;28;20267;-82
2023/01/06 07:51:20;;;;;;;8.82;3.85;;;;;;;;;;5078197;28;20111;-81
2023/01/06 07:53:45;;;;;;;7.50;3.95;;;;;;;;;;5077811;28;20016;-80
2023/01/06 07:56:11;;;;;;;6.78;3.22;;;;;;;;;;5077722;28;20025;-81
2023/01/06 07:58:36;;;;;;;10.75;3.72;;;;;;;;;;5077620;28;20024;-80
2023/01/06 08:01:06;;;;;;;10.23;3.77;;;;;;;;;;5060099;28;20052;-81
2023/01/06 08:03:31;;;;;;;9.40;3.80;;;;;;;;;;5078205;28;20340;-81
2023/01/06 08:05:56;;;;;;;10.52;3.85;;;;;;;;;;5060450;28;20055;-81
2023/01/06 08:08:22;;;;;;;12.25;4.40;;;;;;;;;;5078710;28;20513;-82
2023/01/06 08:10:47;;;;;;;9.07;3.97;;;;;;;;;;5079435;28;20020;-80
2023/01/06 08:13:12;;;;;;;6.97;3.55;;;;;;;;;;5060430;28;20035;-81
2023/01/06 08:15:38;;;;;;;9.40;3.53;;;;;;;;;;5078449;28;20047;-80
2023/01/06 08:18:03;;;;;;;7.68;3.63;;;;;;;;;;5078113;28;20253;-82
2023/01/06 08:20:28;;;;;;;6.82;3.40;;;;;;;;;;5078145;28;20033;-82
2023/01/06 08:22:54;;;;;;;8.02;3.60;;;;;;;;;;5060180;28;20023;-80
2023/01/06 08:25:19;;;;;;;6.85;3.58;;;;;;;;;;5061034;28;20020;-82
2023/01/06 08:27:44;;;;;;;9.30;3.35;;;;;;;;;;5077827;28;20434;-80
2023/01/06 08:30:10;;;;;;;6.97;3.70;;;;;;;;;;5059817;28;20029;-81
2023/01/06 08:32:35;;;;;;;10.88;4.15;;;;;;;;;;5059828;28;20090;-80
2023/01/06 08:35:00;;;;;;;7.57;3.43;;;;;;;;;;5059172;28;20537;-81
2023/01/06 08:37:25;;;;;;;7.82;3.25;;;;;;;;;;5077600;28;20797;-81
2023/01/06 08:39:51;;;;;;;6.53;3.43;;;;;;;;;;5077348;28;20039;-82
2023/01/06 08:42:17;;;;;;;6.35;3.20;;;;;;;;;;5059144;28;20261;-80
2023/01/06 08:44:42;;;;;;;11.60;3.80;;;;;;;;;;5078196;28;20046;-82
2023/01/06 08:47:07;;;;;;;5.63;3.10;;;;;;;;;;5077944;28;20028;-81
2023/01/06 08:49:32;;;;;;;5.97;3.67;;;;;;;;;;5078202;28;20024;-81
2023/01/06 08:51:58;;;;;;;9.98;3.20;;;;;;;;;;5058759;28;20284;-81
2023/01/06 08:54:23;;;;;;;5.70;3.42;;;;;;;;;;5077037;28;20035;-81
2023/01/06 08:56:48;;;;;;;6.60;3.22;;;;;;;;;;5077687;28;20039;-81
2023/01/06 08:59:16;;;;;;;4.40;2.85;;;;;;;;;;5077374;28;20108;-81
2023/01/06 09:01:41;;;;;;;3.65;2.60;;;;;;;;;;5058368;28;20024;-83
2023/01/06 09:04:08;;;;;;;4.13;2.42;;;;;;;;;;5076538;28;20131;-81
2023/01/06 09:06:34;;;;;;;4.13;2.50;;;;;;;;;;5076663;28;20039;-82
2023/01/06 09:09:01;;;;;;;4.57;2.67;;;;;;;;;;5076947;28;20389;-80
2023/01/06 09:11:27;;;;;;;6.35;2.42;;;;;;;;;;5077162;28;20028;-82
2023/01/06 09:13:52;;;;;;;5.15;2.58;;;;;;;;;;5059715;28;20043;-83
2023/01/06 09:16:19;;;;;;;4.80;2.60;;;;;;;;;;5077021;28;20028;-82
2023/01/06 09:18:48;;;;;;;10.02;2.60;;;;;;;;;;5058654;28;20021;-81
2023/01/06 09:21:14;;;;;;;4.88;2.80;;;;;;;;;;5076534;28;20047;-81
2023/01/06 09:23:40;;;;;;;4.38;2.47;;;;;;;;;;5076470;28;20103;-80
2023/01/06 09:26:05;;;;;;;6.30;2.92;;;;;;;;;;5076614;28;20090;-80
2023/01/06 09:28:31;;;;;;;5.03;2.50;;;;;;;;;;5077824;28;20024;-82
2023/01/06 09:30:56;;;;;;;6.70;2.95;;;;;;;;;;5076892;28;20048;-81
2023/01/06 09:33:22;;;;;;;4.75;2.63;;;;;;;;;;5076238;28;20028;-81
2023/01/06 09:35:47;;;;;;;5.10;2.50;;;;;;;;;;5059501;28;20386;-81
2023/01/06 09:38:13;;;;;;;5.25;2.40;;;;;;;;;;5076851;28;20035;-80
2023/01/06 09:41:07;;;;;;;5.45;2.65;;;;;;;;;;5076790;28;20021;-81
2023/01/06 09:43:52;;;;;;;7.07;2.45;;;;;;;;;;5076529;28;20474;-82
2023/01/06 09:46:22;;;;;;;5.05;2.47;;;;;;;;;;5077290;28;20032;-82
2023/01/06 09:48:59;;;;;;;4.65;2.25;;;;;;;;;;5058742;28;20175;-80
2023/01/06 09:51:26;;;;;;;5.38;2.25;;;;;;;;;;5076046;28;20092;-81
2023/01/06 09:53:57;;;;;;;3.75;2.40;;;;;;;;;;5075187;28;20021;-81
2023/01/06 09:56:23;;;;;;;4.05;2.35;;;;;;;;;;5076373;28;20032;-81
2023/01/06 09:58:49;;;;;;;4.00;2.47;;;;;;;;;;5076855;28;20086;-81
2023/01/06 10:01:17;;;;;;;6.00;2.50;;;;;;;;;;5058733;28;20032;-81
2023/01/06 10:03:45;;;;;;;2.83;1.90;;;;;;;;;;5076552;28;20051;-81
2023/01/06 10:06:39;;;;;;;5.13;2.30;;;;;;;;;;5059978;28;20119;-81
2023/01/06 10:09:19;;;;;;;3.53;2.35;;;;;;;;;;5076825;28;20504;-81
2023/01/06 10:12:17;;;;;;;6.40;2.25;;;;;;;;;;5077191;28;20039;-82
2023/01/06 10:14:56;;;;;;;3.63;2.03;;;;;;;;;;5078885;28;20029;-82
2023/01/06 10:17:42;;;;;;;4.28;2.20;;;;;;;;;;5078794;28;20021;-81
2023/01/06 10:20:40;;;;;;;4.57;2.13;;;;;;;;;;5078086;28;20081;-81
2023/01/06 10:23:23;;;;;;;3.97;2.45;;;;;;;;;;5025228;28;20131;-80
2023/01/06 10:25:52;;;;;;;3.40;2.03;;;;;;;;;;5076658;28;20024;-82
2023/01/06 10:28:53;;;;;;;3.53;1.98;;;;;;;;;;5075694;28;20070;-81
2023/01/06 10:31:23;;;;;;;3.70;2.15;;;;;;;;;;5014013;28;20165;-81
2023/01/06 10:33:51;;;;;;;4.65;2.30;;;;;;;;;;5045865;28;20039;-81
2023/01/06 10:36:21;;;;;;;3.45;1.70;;;;;;;;;;5075257;28;20035;-83
2023/01/06 10:38:49;;;;;;;4.05;2.35;;;;;;;;;;5075510;28;20405;-82
2023/01/06 10:41:45;;;;;;;3.10;1.90;;;;;;;;;;5075450;28;20047;-82
2023/01/06 10:44:11;;;;;;;4.65;2.78;;;;;;;;;;5059407;28;20560;-83
2023/01/06 10:46:37;;;;;;;3.60;2.20;;;;;;;;;;5079296;28;20036;-82
2023/01/06 10:49:06;;;;;;;3.38;2.10;;;;;;;;;;5061669;28;20035;-81
2023/01/06 10:51:36;;;;;;;6.35;2.25;;;;;;;;;;5060538;28;20127;-81
2023/01/06 10:54:12;;;;;;;4.78;2.17;;;;;;;;;;5061309;28;20035;-80
2023/01/06 10:56:42;;;;;;;3.22;1.98;;;;;;;;;;5079435;28;20027;-81
2023/01/06 10:59:10;;;;;;;3.13;1.90;;;;;;;;;;5079034;28;20024;-81
2023/01/06 11:01:47;;;;;;;4.13;2.10;;;;;;;;;;5061183;28;20047;-81
2023/01/06 11:04:14;;;;;;;3.33;1.83;;;;;;;;;;5079375;28;20025;-81
2023/01/06 11:06:45;;;;;;;3.88;2.30;;;;;;;;;;5061175;28;20554;-80
2023/01/06 11:09:31;;;;;;;3.38;1.85;;;;;;;;;;5079232;28;20029;-81
2023/01/06 11:12:00;;;;;;;3.67;2.28;;;;;;;;;;5079219;28;20028;-80
2023/01/06 11:14:29;;;;;;;4.55;2.10;;;;;;;;;;5079149;28;20024;-81
2023/01/06 11:17:01;;;;;;;2.83;2.00;;;;;;;;;;5080391;28;20028;-81
2023/01/06 11:19:42;;;;;;;6.63;2.22;;;;;;;;;;5080399;28;20032;-80
2023/01/06 11:22:34;;;;;;;6.10;2.40;;;;;;;;;;5079744;28;20020;-81
2023/01/06 11:25:00;;;;;;;3.55;2.20;;;;;;;;;;5071622;28;20032;-81
2023/01/06 11:27:25;;;;;;;4.05;2.13;;;;;;;;;;5079309;28;20142;-82
2023/01/06 11:29:50;;;;;;;3.15;1.83;;;;;;;;;;5079173;28;20032;-81
2023/01/06 11:32:27;;;;;;;2.97;1.40;;;;;;;;;;5078691;28;20478;-82
2023/01/06 11:34:59;;;;;;;1.38;0.90;;;;;;;;;;5078267;28;20761;-82
2023/01/06 11:37:31;;;;;;;0.70;0.52;;;;;;;;;;5079384;28;20029;-83
2023/01/06 11:39:57;;;;;;;0.47;0.28;;;;;;;;;;5079492;28;20032;-81
2023/01/06 11:42:23;;;;;;;0.60;0.50;;;;;;;;;;5079940;28;20046;-81
2023/01/06 11:44:49;;;;;;;0.60;0.45;;;;;;;;;;5079544;28;20048;-81
2023/01/06 11:47:21;;;;;;;0.50;0.45;;;;;;;;;;5061723;28;20024;-81
2023/01/06 11:49:53;;;;;;;0.50;0.40;;;;;;;;;;5061495;28;20050;-81
2023/01/06 11:52:30;;;;;;;0.52;0.40;;;;;;;;;;5079929;28;20033;-80
2023/01/06 11:55:21;;;;;;;0.65;0.40;;;;;;;;;;5079336;28;20017;-81
2023/01/06 11:57:53;;;;;;;2.13;0.60;;;;;;;;;;5079717;28;20028;-82
2023/01/06 12:00:41;;;;;;;0.98;0.70;;;;;;;;;;5079401;28;20023;-82
2023/01/06 12:03:09;;;;;;;0.65;0.57;;;;;;;;;;5062142;28;20565;-81
2023/01/06 12:06:02;;;;;;;1.20;0.70;;;;;;;;;;5079729;28;20124;-82
2023/01/06 12:08:37;;;;;;;2.25;0.60;;;;;;;;;;5061657;28;20031;-82
2023/01/06 12:11:12;;;;;;;1.40;0.80;;;;;;;;;;5079261;28;20031;-82
2023/01/06 12:13:38;;;;;;;0.98;0.70;;;;;;;;;;5079836;28;20030;-83
2023/01/06 12:16:10;;;;;;;0.95;0.68;;;;;;;;;;5080758;28;20024;-83
2023/01/06 12:18:39;;;;;;;0.55;0.40;;;;;;;;;;5080093;28;20048;-83
2023/01/06 12:21:04;;;;;;;0.50;0.43;;;;;;;;;;5079732;28;20043;-83
2023/01/06 12:23:36;;;;;;;1.38;0.68;;;;;;;;;;5079137;28;20048;-81
2023/01/06 12:26:07;;;;;;;0.70;0.40;;;;;;;;;;5078981;28;20092;-83
2023/01/06 12:28:36;;;;;;;0.82;0.60;;;;;;;;;;5060613;28;20047;-82
2023/01/06 12:31:29;;;;;;;0.40;0.40;;;;;;;;;;5060346;28;20020;-82
2023/01/06 12:34:11;;;;;;;1.50;0.50;;;;;;;;;;5059927;28;20024;-83
2023/01/06 12:36:41;;;;;;;3.17;0.75;;;;;;;;;;5078485;28;20102;-81
2023/01/06 12:39:16;;;;;;;0.50;0.50;;;;;;;;;;5078458;28;20033;-82
2023/01/06 12:41:49;;;;;;;0.57;0.50;;;;;;;;;;5059988;28;20032;-81
2023/01/06 12:44:20;;;;;;;0.50;0.50;;;;;;;;;;5078454;28;20059;-81
2023/01/06 12:47:13;;;;;;;1.58;0.60;;;;;;;;;;5077664;28;20016;-81
2023/01/06 12:49:48;;;;;;;1.67;0.52;;;;;;;;;;5050364;28;20115;-81
2023/01/06 12:52:33;;;;;;;1.35;0.70;;;;;;;;;;5078693;28;20103;-80
2023/01/06 12:55:00;;;;;;;0.85;0.60;;;;;;;;;;5078003;28;20032;-82
2023/01/06 12:57:40;;;;;;;3.15;0.60;;;;;;;;;;5078043;28;20093;-81
2023/01/06 13:00:29;;;;;;;0.85;0.55;;;;;;;;;;5078196;28;20074;-82
2023/01/06 13:03:10;;;;;;;0.60;0.60;;;;;;;;;;5051041;28;20038;-83
2023/01/06 13:05:49;;;;;;;0.63;0.50;;;;;;;;;;5078108;28;20459;-82
2023/01/06 13:08:26;;;;;;;1.27;0.80;;;;;;;;;;5077656;28;20466;-82
2023/01/06 13:11:34;;;;;;;1.75;0.57;;;;;;;;;;5077730;28;20505;-81
2023/01/06 13:14:18;;;;;;;1.85;0.68;;;;;;;;;;5060226;28;20029;-81
2023/01/06 13:16:55;;;;;;;1.10;0.70;;;;;;;;;;5078205;28;20032;-82
2023/01/06 13:19:45;;;;;;;1.27;0.60;;;;;;;;;;5059012;28;20038;-82
2023/01/06 13:22:15;;;;;;;1.30;0.60;;;;;;;;;;5078131;28;20020;-83
2023/01/06 13:24:54;;;;;;;0.88;0.60;;;;;;;;;;5060098;28;20063;-81
2023/01/06 13:27:37;;;;;;;0.52;0.50;;;;;;;;;;5059222;28;20039;-82
2023/01/06 13:30:24;;;;;;;1.33;0.50;;;;;;;;;;5077534;28;20080;-82
2023/01/06 13:33:23;;;;;;;2.28;0.50;;;;;;;;;;5059838;28;20048;-81
2023/01/06 13:36:27;;;;;;;0.50;0.50;;;;;;;;;;5077691;28;20032;-82
2023/01/06 13:39:04;;;;;;;0.57;0.55;;;;;;;;;;5077863;28;20103;-81
2023/01/06 13:41:34;;;;;;;1.10;0.50;;;;;;;;;;5060211;28;20020;-82
2023/01/06 13:44:01;;;;;;;3.17;0.80;;;;;;;;;;5078707;28;20080;-82
2023/01/06 13:46:33;;;;;;;1.27;0.40;;;;;;;;;;5059710;28;20107;-83
2023/01/06 13:49:02;;;;;;;5.05;1.40;;;;;;;;;;5078271;28;20078;-81
2023/01/06 13:51:33;;;;;;;0.90;0.60;;;;;;;;;;5077911;28;20028;-81
2023/01/06 13:54:00;;;;;;;1.08;0.47;;;;;;;;;;5077460;28;20452;-82
2023/01/06 13:56:27;;;;;;;0.80;0.60;;;;;;;;;;5078096;28;20021;-82
2023/01/06 13:59:19;;;;;;;2.20;0.63;;;;;;;;;;5078017;28;20024;-82
2023/01/06 14:01:44;;;;;;;1.23;0.52;;;;;;;;;;5059351;28;20047;-80
2023/01/06 14:04:43;;;;;;;18.40;0.82;;;;;;;;;;5076621;28;20021;-81
2023/01/06 14:07:09;;;;;;;1.15;0.50;;;;;;;;;;5076559;28;20078;-81
2023/01/06 14:09:44;;;;;;;1.30;0.50;;;;;;;;;;5076066;28;20028;-82
2023/01/06 14:12:15;;;;;;;1.00;0.60;;;;;;;;;;5076039;28;20074;-80
2023/01/06 14:14:41;;;;;;;1.58;0.50;;;;;;;;;;5058346;28;20021;-80
2023/01/06 14:17:27;;;;;;;1.70;0.60;;;;;;;;;;5058549;28;20082;-82
2023/01/06 14:19:52;;;;;;;1.67;0.40;;;;;;;;;;5079520;28;20073;-81
2023/01/06 14:22:22;;;;;;;3.90;0.50;;;;;;;;;;5079595;28;20024;-81
2023/01/06 14:24:54;;;;;;;1.73;0.60;;;;;;;;;;5062185;28;20401;-80
2023/01/06 14:27:44;;;;;;;5.35;0.43;;;;;;;;;;5080512;28;20550;-81
2023/01/06 14:30:30;;;;;;;1.00;0.55;;;;;;;;;;5080584;28;20039;-81
2023/01/06 14:32:55;;;;;;;2.47;0.65;;;;;;;;;;5080164;28;20021;-82
2023/01/06 14:35:31;;;;;;;0.43;0.40;;;;;;;;;;5062161;28;20021;-80
2023/01/06 14:38:06;;;;;;;1.40;0.70;;;;;;;;;;5079891;28;20067;-81
2023/01/06 14:40:36;;;;;;;0.85;0.60;;;;;;;;;;5079370;28;20074;-82
2023/01/06 14:43:25;;;;;;;1.73;0.60;;;;;;;;;;5079846;28;20033;-81
2023/01/06 14:45:51;;;;;;;0.70;0.60;;;;;;;;;;5062070;28;20024;-82
2023/01/06 14:48:21;;;;;;;1.40;0.50;;;;;;;;;;5079861;28;20060;-81
2023/01/06 14:50:50;;;;;;;0.52;0.40;;;;;;;;;;5062212;28;20027;-82
2023/01/06 14:53:35;;;;;;;2.83;1.00;;;;;;;;;;5079150;28;20032;-81
2023/01/06 14:56:02;;;;;;;2.17;0.65;;;;;;;;;;5061025;28;20028;-81
2023/01/06 14:58:37;;;;;;;1.00;0.60;;;;;;;;;;5061031;28;20119;-82
2023/01/06 15:01:05;;;;;;;1.73;0.82;;;;;;;;;;5061782;28;20077;-82
2023/01/06 15:03:31;;;;;;;0.82;0.60;;;;;;;;;;5061493;28;20017;-81
2023/01/06 15:06:18;;;;;;;1.33;0.60;;;;;;;;;;5079255;28;20036;-82
2023/01/06 15:08:43;;;;;;;1.73;0.73;;;;;;;;;;5079529;28;20105;-82